Airport View

Enter AWOS ICAO identifier for current METAR.

ex. KFNL

KJKL 191953Z AUTO 28009G18KT 230V310 10SM OVC030 M04/M10 A3018 RMK AO2 SLP231 T10391100

19 Jan 2020 20:06

Frequency: 118.375

Phone: 606-666-2794

Other Area AWOS: KSJS - KPBX - KSYM - KIOB

TAF KJKL 191727Z 1918/2018 29009KT P6SM -SHSN BKN030 FM192300 32004KT P6SM SCT030